Terminal Aerodrome Forecast
Issued by NWS

Current Version | Previous Version | Graphics & Text | Print | Product List | Glossary On
Versions: 1 2 3 4 5 6 7 8 9 10 11 12 13 14 15 16 17 18 19 20 21 22 23 24
183
FTUS41 KRLX 112320
TAFCKB
TAF
KCKB 112320Z 1200/1224 28005KT P6SM BKN250
     FM121500 21004KT P6SM BKN050
     FM121700 23005KT 3SM -SN OVC030
     FM122000 25007KT 2SM -SN OVC015=

USA.gov is the U.S. government's official web portal to all federal, state and local government web resources and services.